createdAt,value
2023-05-22T00:00:10.059Z,51.47
2023-05-22T00:02:43.048Z,51.58
2023-05-22T00:05:10.720Z,51.35
2023-05-22T00:07:37.167Z,51.52
2023-05-22T00:10:03.595Z,51.51
2023-05-22T00:12:29.980Z,51.40
2023-05-22T00:14:56.370Z,51.64
2023-05-22T00:17:23.783Z,51.69
2023-05-22T00:19:51.468Z,51.42
2023-05-22T00:22:17.881Z,51.50
2023-05-22T00:24:44.289Z,51.43
2023-05-22T00:27:10.714Z,51.45
2023-05-22T00:29:37.154Z,51.55
2023-05-22T00:32:03.547Z,51.38
2023-05-22T00:34:30.017Z,51.62
2023-05-22T00:36:56.450Z,51.37
2023-05-22T00:39:22.855Z,51.68
2023-05-22T00:41:49.316Z,51.27
2023-05-22T00:44:15.708Z,51.40
2023-05-22T00:46:43.172Z,51.29
2023-05-22T00:49:09.802Z,51.49
2023-05-22T00:51:36.210Z,51.60
2023-05-22T00:54:02.742Z,51.27
2023-05-22T00:56:29.234Z,51.49
2023-05-22T00:58:55.886Z,51.60
2023-05-22T01:01:23.182Z,51.61
2023-05-22T01:03:50.714Z,51.29
2023-05-22T01:06:21.502Z,51.64
2023-05-22T01:08:47.917Z,51.16
2023-05-22T01:11:16.387Z,51.49
2023-05-22T01:13:56.758Z,51.48
2023-05-22T01:16:44.405Z,51.25
2023-05-22T01:19:20.327Z,51.50
2023-05-22T01:22:01.231Z,51.56
2023-05-22T01:24:33.080Z,51.35
2023-05-22T01:27:03.777Z,51.50
2023-05-22T01:29:43.849Z,51.54
2023-05-22T01:32:11.129Z,51.58
2023-05-22T01:34:38.501Z,51.43
2023-05-22T01:37:04.987Z,51.46
2023-05-22T01:39:31.386Z,51.26
2023-05-22T01:41:57.886Z,51.37
2023-05-22T01:44:25.142Z,51.20
2023-05-22T01:46:51.526Z,51.39
2023-05-22T01:49:17.931Z,51.57
2023-05-22T01:51:53.848Z,51.32
2023-05-22T01:54:24.917Z,51.18
2023-05-22T01:57:10.266Z,51.49
2023-05-22T01:59:48.426Z,51.33
2023-05-22T02:02:18.478Z,51.25
2023-05-22T02:04:57.411Z,51.27
2023-05-22T02:07:24.998Z,51.46
2023-05-22T02:09:51.914Z,51.35
2023-05-22T02:12:18.334Z,51.43
2023-05-22T02:14:44.751Z,51.18
2023-05-22T02:17:11.414Z,51.22
2023-05-22T02:19:37.862Z,51.53
2023-05-22T02:22:05.401Z,51.38
2023-05-22T02:24:36.933Z,51.20
2023-05-22T02:27:04.183Z,51.40
2023-05-22T02:29:30.676Z,51.30
2023-05-22T02:31:57.136Z,51.20
2023-05-22T02:34:26.888Z,51.16
2023-05-22T02:36:53.297Z,51.36
2023-05-22T02:39:20.109Z,51.42
2023-05-22T02:41:46.608Z,51.31
2023-05-22T02:44:13.027Z,51.47
2023-05-22T02:46:39.502Z,51.16
2023-05-22T02:49:05.943Z,51.29
2023-05-22T02:51:32.387Z,51.31
2023-05-22T02:53:58.873Z,51.11
2023-05-22T02:56:27.781Z,51.48
2023-05-22T02:58:55.022Z,51.36
2023-05-22T03:01:22.028Z,51.24
2023-05-22T03:03:48.978Z,51.24
2023-05-22T03:06:15.622Z,51.11
2023-05-22T03:08:43.595Z,51.17
2023-05-22T03:11:09.991Z,51.49
2023-05-22T03:13:36.384Z,51.34
2023-05-22T03:16:02.807Z,51.12
2023-05-22T03:18:29.924Z,51.00
2023-05-22T03:20:56.379Z,51.23
2023-05-22T03:23:22.819Z,51.15
2023-05-22T03:25:49.316Z,51.00
2023-05-22T03:28:15.992Z,51.18
2023-05-22T03:30:42.477Z,51.18
2023-05-22T03:33:14.123Z,51.26
2023-05-22T03:35:40.700Z,51.11
2023-05-22T03:38:07.172Z,51.11
2023-05-22T03:40:33.634Z,51.04
2023-05-22T03:43:00.062Z,51.16
2023-05-22T03:45:26.651Z,51.20
2023-05-22T03:47:53.095Z,50.96
2023-05-22T03:50:19.572Z,51.04
2023-05-22T03:52:45.949Z,51.02
2023-05-22T03:55:12.343Z,51.11
2023-05-22T03:57:38.732Z,51.03
2023-05-22T04:00:09.744Z,51.29
2023-05-22T04:02:39.841Z,51.41
2023-05-22T04:05:07.311Z,50.96
2023-05-22T04:07:33.729Z,51.03
2023-05-22T04:10:00.205Z,51.28
2023-05-22T04:12:26.738Z,50.95
2023-05-22T04:14:53.125Z,51.13
2023-05-22T04:17:19.533Z,50.89
2023-05-22T04:19:46.160Z,51.24
2023-05-22T04:22:12.573Z,51.24
2023-05-22T04:24:39.822Z,51.01
2023-05-22T04:27:06.522Z,51.00
2023-05-22T04:29:36.280Z,51.21
2023-05-22T04:32:02.696Z,51.23
2023-05-22T04:34:30.209Z,51.03
2023-05-22T04:36:56.647Z,50.84
2023-05-22T04:39:26.215Z,50.94
2023-05-22T04:41:52.764Z,51.08
2023-05-22T04:44:22.802Z,50.99
2023-05-22T04:46:51.263Z,51.17
2023-05-22T04:49:17.780Z,51.09
2023-05-22T04:51:44.173Z,51.17
2023-05-22T04:54:10.605Z,51.17
2023-05-22T04:56:37.513Z,51.12
2023-05-22T04:59:05.468Z,51.18
2023-05-22T05:01:33.645Z,50.93
2023-05-22T05:04:00.215Z,51.16
2023-05-22T05:06:27.279Z,51.09
2023-05-22T05:08:54.108Z,51.02
2023-05-22T05:11:21.582Z,51.18
2023-05-22T05:13:48.017Z,51.18
2023-05-22T05:16:14.506Z,51.06
2023-05-22T05:18:40.977Z,51.03
2023-05-22T05:21:07.879Z,51.14
2023-05-22T05:23:34.312Z,51.18
2023-05-22T05:26:00.735Z,51.21
2023-05-22T05:28:27.849Z,51.15
2023-05-22T05:30:54.526Z,51.02
2023-05-22T05:33:39.585Z,50.97
2023-05-22T05:36:12.276Z,51.04
2023-05-22T05:38:39.514Z,50.03
2023-05-22T05:41:06.484Z,49.58
2023-05-22T05:43:34.043Z,49.04
2023-05-22T05:46:04.350Z,48.56
2023-05-22T05:48:30.810Z,48.12
2023-05-22T05:50:58.095Z,47.79
2023-05-22T05:53:25.662Z,47.80
2023-05-22T05:55:57.309Z,47.69
2023-05-22T05:58:23.712Z,47.67
2023-05-22T06:01:04.964Z,47.46
2023-05-22T06:03:31.568Z,47.29
2023-05-22T06:06:21.016Z,47.18
2023-05-22T06:09:06.611Z,47.01
2023-05-22T06:11:36.734Z,47.30
2023-05-22T06:14:03.881Z,47.32
2023-05-22T06:16:31.294Z,47.29
2023-05-22T06:18:58.615Z,47.36
2023-05-22T06:21:26.129Z,47.73
2023-05-22T06:23:52.545Z,47.72
2023-05-22T06:26:19.648Z,48.01
2023-05-22T06:28:46.460Z,48.29
2023-05-22T06:31:12.964Z,48.77
2023-05-22T06:33:43.653Z,48.23
2023-05-22T06:36:11.460Z,47.98
2023-05-22T06:38:40.806Z,47.71
2023-05-22T06:41:16.525Z,47.84
2023-05-22T06:43:42.922Z,47.88
2023-05-22T06:46:12.540Z,48.02
2023-05-22T06:48:50.622Z,47.64
2023-05-22T06:51:24.305Z,48.00
2023-05-22T06:53:53.815Z,47.67
2023-05-22T06:56:24.786Z,47.15
2023-05-22T06:58:54.089Z,46.82
2023-05-22T07:01:23.543Z,46.70
2023-05-22T07:04:01.894Z,46.53
2023-05-22T07:06:39.050Z,46.29
2023-05-22T07:09:06.190Z,46.89
2023-05-22T07:11:32.852Z,47.00
2023-05-22T07:13:59.253Z,46.75
2023-05-22T07:16:25.757Z,46.49
2023-05-22T07:18:53.155Z,46.64
2023-05-22T07:21:19.634Z,46.59
2023-05-22T07:23:46.298Z,46.57
2023-05-22T07:26:12.830Z,46.51
2023-05-22T07:28:47.159Z,46.51
2023-05-22T07:31:14.329Z,46.47
2023-05-22T07:33:40.849Z,46.32
2023-05-22T07:36:07.302Z,46.42
2023-05-22T07:38:35.522Z,46.46
2023-05-22T07:41:04.784Z,46.07
2023-05-22T07:43:33.086Z,46.00
2023-05-22T07:46:00.026Z,46.01
2023-05-22T07:48:30.899Z,46.38
2023-05-22T07:50:57.266Z,46.11
2023-05-22T07:53:23.895Z,46.03
2023-05-22T07:55:53.020Z,46.36
2023-05-22T07:58:19.645Z,46.05
2023-05-22T08:00:47.498Z,46.30
2023-05-22T08:03:14.009Z,45.88
2023-05-22T08:05:40.531Z,45.80
2023-05-22T08:08:06.965Z,45.72
2023-05-22T08:10:46.628Z,46.69
2023-05-22T08:13:13.906Z,46.60
2023-05-22T08:15:40.406Z,47.03
2023-05-22T08:18:06.874Z,46.78
2023-05-22T08:20:33.789Z,46.96
2023-05-22T08:23:00.283Z,46.99
2023-05-22T08:25:26.677Z,46.79
2023-05-22T08:27:53.078Z,46.59
2023-05-22T08:30:19.472Z,46.58
2023-05-22T08:32:45.976Z,46.62
2023-05-22T08:35:12.419Z,46.48
2023-05-22T08:37:38.796Z,46.20
2023-05-22T08:40:05.553Z,46.22
2023-05-22T08:42:31.985Z,45.92
2023-05-22T08:45:01.124Z,46.10
2023-05-22T08:47:28.455Z,45.94
2023-05-22T08:49:55.023Z,46.70
2023-05-22T08:52:26.295Z,46.90
2023-05-22T08:54:53.201Z,46.39
2023-05-22T08:57:19.841Z,46.50
2023-05-22T08:59:46.333Z,46.99
2023-05-22T09:02:12.759Z,46.94
2023-05-22T09:04:40.850Z,46.81
2023-05-22T09:07:09.061Z,46.49
2023-05-22T09:09:38.649Z,46.73
2023-05-22T09:12:11.741Z,46.12
2023-05-22T09:14:39.108Z,46.54
2023-05-22T09:17:05.542Z,46.45
2023-05-22T09:19:31.991Z,46.60
2023-05-22T09:22:04.649Z,46.41
2023-05-22T09:24:31.140Z,45.95
2023-05-22T09:26:57.512Z,45.88
2023-05-22T09:29:23.949Z,46.22
2023-05-22T09:31:50.573Z,45.13
2023-05-22T09:34:17.619Z,45.36
2023-05-22T09:36:44.074Z,45.42
2023-05-22T09:39:10.945Z,45.25
2023-05-22T09:41:38.137Z,45.20
2023-05-22T09:44:14.303Z,44.79
2023-05-22T09:46:41.609Z,45.23
2023-05-22T09:49:08.245Z,45.19
2023-05-22T09:51:35.726Z,44.98
2023-05-22T09:54:03.471Z,45.09
2023-05-22T09:56:38.480Z,45.01
2023-05-22T09:59:06.112Z,44.57
2023-05-22T10:01:33.977Z,45.09
2023-05-22T10:04:00.412Z,45.21
2023-05-22T10:06:27.221Z,45.07
2023-05-22T10:08:55.061Z,45.00
2023-05-22T10:11:21.578Z,45.23
2023-05-22T10:13:47.993Z,44.89
2023-05-22T10:16:15.329Z,44.99
2023-05-22T10:18:41.932Z,45.14
2023-05-22T10:21:08.367Z,44.67
2023-05-22T10:23:34.770Z,44.93
2023-05-22T10:26:01.217Z,45.11
2023-05-22T10:28:28.194Z,44.76
2023-05-22T10:31:03.015Z,44.02
2023-05-22T10:33:48.494Z,44.66
2023-05-22T10:36:24.843Z,44.60
2023-05-22T10:38:57.636Z,43.92
2023-05-22T10:41:24.046Z,44.18
2023-05-22T10:43:50.632Z,44.41
2023-05-22T10:46:17.091Z,45.02
2023-05-22T10:48:47.202Z,44.64
2023-05-22T10:51:14.272Z,44.74
2023-05-22T10:53:40.977Z,44.55
2023-05-22T10:56:11.038Z,43.81
2023-05-22T10:58:37.503Z,44.66
2023-05-22T11:01:17.239Z,45.03
2023-05-22T11:03:59.292Z,45.81
2023-05-22T11:06:45.698Z,45.83
2023-05-22T11:09:30.897Z,45.93
2023-05-22T11:12:19.617Z,46.28
2023-05-22T11:14:49.327Z,46.09
2023-05-22T11:17:20.823Z,45.83
2023-05-22T11:20:06.292Z,45.76
2023-05-22T11:22:34.318Z,45.66
2023-05-22T11:25:00.698Z,45.59
2023-05-22T11:27:27.242Z,45.89
2023-05-22T11:29:53.727Z,45.57
2023-05-22T11:32:22.339Z,45.70
2023-05-22T11:34:50.446Z,45.57
2023-05-22T11:37:20.181Z,45.75
2023-05-22T11:39:55.929Z,46.22
2023-05-22T11:42:22.312Z,45.89
2023-05-22T11:44:48.726Z,46.11
2023-05-22T11:47:15.165Z,46.46
2023-05-22T11:49:42.375Z,46.79
2023-05-22T11:52:09.315Z,46.90
2023-05-22T11:54:37.853Z,46.87
2023-05-22T11:57:07.993Z,46.66
2023-05-22T11:59:34.406Z,46.64
2023-05-22T12:02:00.809Z,46.46
2023-05-22T12:04:27.266Z,46.95
2023-05-22T12:06:53.858Z,46.42
2023-05-22T12:09:20.407Z,46.53
2023-05-22T12:11:46.927Z,46.26
2023-05-22T12:14:13.316Z,46.53
2023-05-22T12:16:39.819Z,46.14
2023-05-22T12:19:09.507Z,46.43
2023-05-22T12:21:36.605Z,46.49
2023-05-22T12:24:03.338Z,46.46
2023-05-22T12:26:29.772Z,46.86
2023-05-22T12:28:56.639Z,46.46
2023-05-22T12:31:23.041Z,46.54
2023-05-22T12:33:49.420Z,46.57
2023-05-22T12:36:15.806Z,46.28
2023-05-22T12:38:42.193Z,46.59
2023-05-22T12:41:08.574Z,46.77
2023-05-22T12:43:35.020Z,46.86
2023-05-22T12:46:02.882Z,46.63
2023-05-22T12:48:29.531Z,46.63
2023-05-22T12:50:55.919Z,46.53
2023-05-22T12:53:22.329Z,46.56
2023-05-22T12:55:48.720Z,46.73
2023-05-22T12:58:15.310Z,46.88
2023-05-22T13:00:41.906Z,47.00
2023-05-22T13:03:08.619Z,47.43
2023-05-22T13:05:35.030Z,47.20
2023-05-22T13:08:01.468Z,47.16
2023-05-22T13:10:27.887Z,47.37
2023-05-22T13:12:54.382Z,47.57
2023-05-22T13:15:20.972Z,47.63
2023-05-22T13:17:47.452Z,47.83
2023-05-22T13:20:13.902Z,47.79
2023-05-22T13:22:40.454Z,47.84
2023-05-22T13:25:06.965Z,48.08
2023-05-22T13:27:34.033Z,47.88
2023-05-22T13:30:00.596Z,48.11
2023-05-22T13:32:27.184Z,48.22
2023-05-22T13:34:53.652Z,48.20
2023-05-22T13:37:20.141Z,48.11
2023-05-22T13:39:46.767Z,48.43
2023-05-22T13:42:13.235Z,48.38
2023-05-22T13:44:39.640Z,48.54
2023-05-22T13:47:06.129Z,48.64
2023-05-22T13:49:32.569Z,48.47
2023-05-22T13:51:59.000Z,48.82
2023-05-22T13:54:25.424Z,49.18
2023-05-22T13:56:51.846Z,48.74
2023-05-22T13:59:18.264Z,48.44
2023-05-22T14:01:44.763Z,48.60
2023-05-22T14:04:11.182Z,48.57
2023-05-22T14:06:37.583Z,48.40
2023-05-22T14:09:07.071Z,48.72
2023-05-22T14:11:33.740Z,48.83
2023-05-22T14:14:00.130Z,48.65
2023-05-22T14:16:26.582Z,48.15
2023-05-22T14:18:53.063Z,48.11
2023-05-22T14:21:19.544Z,48.32
2023-05-22T14:23:45.941Z,48.67
2023-05-22T14:26:13.700Z,48.19
2023-05-22T14:28:41.034Z,49.16
2023-05-22T14:31:07.735Z,48.96
2023-05-22T14:33:34.176Z,48.98
2023-05-22T14:36:00.565Z,48.76
2023-05-22T14:38:26.967Z,48.73
2023-05-22T14:40:53.353Z,48.64
2023-05-22T14:43:19.769Z,48.45
2023-05-22T14:45:46.158Z,48.48
2023-05-22T14:48:12.807Z,48.38
2023-05-22T14:50:39.308Z,48.25
2023-05-22T14:53:05.724Z,48.42
2023-05-22T14:55:32.191Z,48.14
2023-05-22T14:57:58.588Z,48.15
2023-05-22T15:00:25.072Z,48.13
2023-05-22T15:02:51.553Z,48.33
2023-05-22T15:05:18.133Z,48.25
2023-05-22T15:07:46.741Z,47.91
2023-05-22T15:10:14.281Z,47.53
2023-05-22T15:12:40.778Z,48.05
2023-05-22T15:15:07.423Z,47.89
2023-05-22T15:17:33.895Z,47.96
2023-05-22T15:20:00.457Z,48.13
2023-05-22T15:22:26.861Z,47.67
2023-05-22T15:25:06.150Z,48.00
2023-05-22T15:27:32.982Z,48.00
2023-05-22T15:29:59.394Z,47.87
2023-05-22T15:32:25.910Z,47.89
2023-05-22T15:34:52.496Z,48.00
2023-05-22T15:37:18.905Z,48.03
2023-05-22T15:39:45.364Z,47.93
2023-05-22T15:42:11.761Z,47.93
2023-05-22T15:44:38.147Z,47.92
2023-05-22T15:47:04.538Z,47.83
2023-05-22T15:49:31.515Z,47.74
2023-05-22T15:51:58.062Z,48.14
2023-05-22T15:54:24.519Z,48.47
2023-05-22T15:56:51.011Z,48.18
2023-05-22T15:59:17.391Z,48.45
2023-05-22T16:01:43.908Z,48.46
2023-05-22T16:04:10.453Z,48.77
2023-05-22T16:06:36.956Z,48.94
2023-05-22T16:09:03.363Z,48.76
2023-05-22T16:11:30.098Z,48.38
2023-05-22T16:13:56.487Z,48.42
2023-05-22T16:16:23.146Z,48.06
2023-05-22T16:18:49.634Z,48.37
2023-05-22T16:21:16.061Z,48.35
2023-05-22T16:23:42.448Z,48.16
2023-05-22T16:26:08.889Z,48.05
2023-05-22T16:28:35.289Z,48.30
2023-05-22T16:31:01.753Z,48.28
2023-05-22T16:33:28.207Z,48.48
2023-05-22T16:35:54.613Z,48.13
2023-05-22T16:38:21.013Z,48.42
2023-05-22T16:40:47.398Z,48.37
2023-05-22T16:43:13.922Z,48.32
2023-05-22T16:45:40.596Z,48.24
2023-05-22T16:48:08.235Z,48.33
2023-05-22T16:50:34.723Z,48.38
2023-05-22T16:53:01.156Z,48.50
2023-05-22T16:55:27.544Z,48.47
2023-05-22T16:57:53.950Z,48.54
2023-05-22T17:00:20.598Z,48.43
2023-05-22T17:02:47.161Z,48.47
2023-05-22T17:05:13.599Z,48.53
2023-05-22T17:07:39.985Z,48.91
2023-05-22T17:10:06.593Z,48.89
2023-05-22T17:12:32.995Z,49.22
2023-05-22T17:14:59.440Z,49.51
2023-05-22T17:17:26.021Z,49.54
2023-05-22T17:19:53.306Z,49.71
2023-05-22T17:22:19.713Z,49.97
2023-05-22T17:24:46.198Z,49.84
2023-05-22T17:29:39.138Z,49.71
2023-05-22T17:32:06.604Z,49.72
2023-05-22T17:34:33.057Z,50.04
2023-05-22T17:36:59.449Z,49.98
2023-05-22T17:39:25.867Z,49.85
2023-05-22T17:41:52.254Z,50.12
2023-05-22T17:44:18.656Z,49.86
2023-05-22T17:46:45.055Z,50.20
2023-05-22T17:49:11.526Z,50.04
2023-05-22T17:51:37.913Z,50.40
2023-05-22T17:54:06.023Z,50.48
2023-05-22T17:56:32.445Z,50.10
2023-05-22T17:58:58.852Z,50.41
2023-05-22T18:01:27.081Z,50.55
2023-05-22T18:03:53.804Z,50.75
2023-05-22T18:06:23.209Z,50.93
2023-05-22T18:08:50.477Z,50.98
2023-05-22T18:11:16.969Z,50.80
2023-05-22T18:13:43.363Z,51.18
2023-05-22T18:16:09.868Z,51.03
2023-05-22T18:18:36.310Z,51.02
2023-05-22T18:21:02.762Z,51.38
2023-05-22T18:23:29.160Z,51.51
2023-05-22T18:25:57.212Z,51.71
2023-05-22T18:28:26.231Z,52.44
2023-05-22T18:30:52.961Z,51.77
2023-05-22T18:33:19.912Z,51.66
2023-05-22T18:35:46.349Z,51.53
2023-05-22T18:38:12.730Z,51.52
2023-05-22T18:40:39.376Z,51.67
2023-05-22T18:43:06.096Z,51.81
2023-05-22T18:45:32.506Z,51.60
2023-05-22T18:47:59.023Z,51.68
2023-05-22T18:50:26.345Z,51.91
2023-05-22T18:52:52.724Z,51.90
2023-05-22T18:55:19.115Z,51.83
2023-05-22T18:57:45.569Z,51.96
2023-05-22T19:00:12.185Z,51.98
2023-05-22T19:02:38.617Z,51.94
2023-05-22T19:05:05.253Z,51.56
2023-05-22T19:07:31.836Z,51.73
2023-05-22T19:09:58.249Z,51.88
2023-05-22T19:12:25.476Z,51.76
2023-05-22T19:14:53.960Z,52.09
2023-05-22T19:17:20.640Z,51.94
2023-05-22T19:19:47.323Z,51.84
2023-05-22T19:22:14.518Z,51.50
2023-05-22T19:24:41.740Z,51.19
2023-05-22T19:27:08.137Z,47.22
2023-05-22T19:29:34.537Z,46.49
2023-05-22T19:32:01.067Z,47.63
2023-05-22T19:34:27.475Z,47.97
2023-05-22T19:36:57.532Z,49.86
2023-05-22T19:39:24.150Z,50.24
2023-05-22T19:41:52.485Z,50.06
2023-05-22T19:44:19.002Z,50.32
2023-05-22T19:46:46.234Z,50.69
2023-05-22T19:49:12.749Z,50.66
2023-05-22T19:51:39.147Z,50.61
2023-05-22T19:54:05.624Z,50.76
2023-05-22T19:56:34.912Z,50.80
2023-05-22T19:59:01.321Z,50.74
2023-05-22T20:01:27.734Z,50.70
2023-05-22T20:03:56.020Z,50.64
2023-05-22T20:06:22.811Z,50.85
2023-05-22T20:08:49.230Z,50.96
2023-05-22T20:11:15.613Z,49.99
2023-05-22T20:13:42.032Z,50.03
2023-05-22T20:16:11.765Z,49.73
2023-05-22T20:18:40.897Z,49.97
2023-05-22T20:21:07.494Z,50.18
2023-05-22T20:23:33.982Z,50.40
2023-05-22T20:26:00.362Z,50.19
2023-05-22T20:28:26.778Z,50.56
2023-05-22T20:30:53.146Z,50.50
2023-05-22T20:33:19.690Z,50.71
2023-05-22T20:38:14.963Z,50.80
2023-05-22T20:40:46.441Z,50.59
2023-05-22T20:43:13.961Z,50.99
2023-05-22T20:45:41.665Z,50.96
2023-05-22T20:48:08.308Z,50.96
2023-05-22T20:50:36.563Z,51.06
2023-05-22T20:53:06.396Z,50.79
2023-05-22T20:55:33.522Z,51.03
2023-05-22T20:57:59.923Z,50.86
2023-05-22T21:00:26.325Z,50.80
2023-05-22T21:02:52.764Z,50.96
2023-05-22T21:05:19.183Z,50.96
2023-05-22T21:07:45.577Z,51.05
2023-05-22T21:10:11.966Z,50.83
2023-05-22T21:12:38.352Z,51.09
2023-05-22T21:15:04.984Z,51.08
2023-05-22T21:17:31.403Z,50.88
2023-05-22T21:19:57.808Z,51.24
2023-05-22T21:22:24.192Z,51.01
2023-05-22T21:24:50.590Z,51.23
2023-05-22T21:27:16.985Z,51.08
2023-05-22T21:29:43.382Z,51.00
2023-05-22T21:32:09.787Z,51.22
2023-05-22T21:34:36.199Z,51.17
2023-05-22T21:37:02.622Z,51.37
2023-05-22T21:39:29.026Z,51.16
2023-05-22T21:41:55.424Z,51.13
2023-05-22T21:44:21.823Z,51.43
2023-05-22T21:46:48.289Z,51.47
2023-05-22T21:49:14.738Z,51.24
2023-05-22T21:51:41.135Z,51.25
2023-05-22T21:54:07.513Z,51.24
2023-05-22T21:56:33.877Z,51.54
2023-05-22T21:59:00.312Z,51.54
2023-05-22T22:01:26.738Z,51.40
2023-05-22T22:03:53.190Z,51.46
2023-05-22T22:06:19.593Z,51.43
2023-05-22T22:08:46.001Z,51.31
2023-05-22T22:11:12.388Z,51.48
2023-05-22T22:13:38.795Z,51.44
2023-05-22T22:16:05.550Z,51.60
2023-05-22T22:18:33.455Z,51.65
2023-05-22T22:21:02.209Z,51.43
2023-05-22T22:23:29.155Z,51.63
2023-05-22T22:25:56.004Z,51.54
2023-05-22T22:28:22.422Z,51.43
2023-05-22T22:30:48.841Z,51.53
2023-05-22T22:33:15.235Z,51.58
2023-05-22T22:35:42.169Z,51.23
2023-05-22T22:38:08.823Z,51.61
2023-05-22T22:40:35.468Z,51.41
2023-05-22T22:43:01.880Z,51.65
2023-05-22T22:45:28.275Z,51.74
2023-05-22T22:47:56.464Z,51.63
2023-05-22T22:50:24.329Z,51.72
2023-05-22T22:52:51.060Z,51.39
2023-05-22T22:55:17.704Z,51.52
2023-05-22T22:57:46.926Z,51.34
2023-05-22T23:00:13.666Z,51.39
2023-05-22T23:02:40.202Z,51.40
2023-05-22T23:05:06.917Z,51.79
2023-05-22T23:07:33.475Z,51.47
2023-05-22T23:09:59.896Z,51.46
2023-05-22T23:12:26.341Z,51.63
2023-05-22T23:14:53.560Z,51.63
2023-05-22T23:17:19.953Z,51.56
2023-05-22T23:19:46.778Z,51.71
2023-05-22T23:22:13.170Z,51.69
2023-05-22T23:24:39.575Z,51.67
2023-05-22T23:27:06.117Z,51.35
2023-05-22T23:29:32.523Z,51.67
2023-05-22T23:31:59.162Z,51.63
2023-05-22T23:34:25.764Z,51.60
2023-05-22T23:36:52.147Z,51.36
2023-05-22T23:39:18.556Z,51.33
2023-05-22T23:41:45.400Z,51.48
2023-05-22T23:44:12.185Z,51.62
2023-05-22T23:46:39.724Z,51.66
2023-05-22T23:49:07.135Z,51.38
2023-05-22T23:51:33.551Z,51.49
2023-05-22T23:53:59.948Z,51.56
2023-05-22T23:56:26.495Z,51.63
2023-05-22T23:58:52.917Z,51.73
